Blackbird — WDJ4307 — position and weather

sailwx.info

Track history (hours):
 
Tides and Currents Weather Stations Pressure Air Temp Water Temp Dewpoint Dewpoint Depression Visibility Wind Speed Wind Dir Waves Ship Positions

Blackbird

Owner: PropSF, LLC, Alameda, CA. More information available from US FCC via Universal Licensing System and Coast Guard Vessel Documentation Center.

Last reported at 2018-Jun-22 16:19 UTC. Time now 2018-Jun-22 17:10 UTC.
Position N 37°50' W 122°19'.

Length 17 m; draft 1 m.

Type: Passenger vessel. MMSI: 367776390.

Date/timePositionNaut miles runAvg speedWind from/ knotsBaromVisibWave heightAir tempDewpointWater temp
2018-Jun-22 16:19N 37°50' W 122°19'0 0.0
2018-Jun-22 16:00N 37°50' W 122°19'3 5.1
2018-Jun-22 15:30N 37°48' W 122°21'916.9
2018-Jun-22 15:00N 37°40' W 122°22'1224.2
2018-Jun-22 14:30N 37°52' W 122°19'3 5.5
2018-Jun-22 14:00N 37°50' W 122°22'1020.2
2018-Jun-22 13:30N 37°40' W 122°23'1223.6
2018-Jun-22 13:01N 37°52' W 122°23'4 7.4
2018-Jun-22 12:30N 37°55' W 122°21'5 9.6
2018-Jun-22 12:00N 37°50' W 122°19'0 0.2
2018-Jun-22 11:29N 37°50' W 122°19'0 0.0
2018-Jun-22 02:41N 37°50' W 122°19'0 0.3
2018-Jun-22 02:30N 37°50' W 122°19'2 3.3
2018-Jun-22 02:00N 37°52' W 122°19'1223.8
2018-Jun-22 01:31N 37°40' W 122°22'1 2.9
2018-Jun-22 01:00N 37°42' W 122°21'1427.6
2018-Jun-22 00:31N 37°55' W 122°26'1223.1
2018-Jun-22 00:00N 38°04' W 122°16'1 1.8
2018-Jun-21 23:30N 38°04' W 122°15'1427.3
2018-Jun-21 23:00N 37°55' W 122°28'1121.2
2018-Jun-21 22:31N 37°46' W 122°22'611.3
2018-Jun-21 21:59N 37°40' W 122°23'510.1
2018-Jun-21 21:30N 37°44' W 122°21'612.2
2018-Jun-21 21:00N 37°50' W 122°19'0 0.0
2018-Jun-21 16:42N 37°50' W 122°19'0 0.0
2018-Jun-21 16:30N 37°50' W 122°19'0 0.0
2018-Jun-21 16:00N 37°50' W 122°19'3 5.1
2018-Jun-21 15:30N 37°48' W 122°21'917.3
2018-Jun-21 15:00N 37°40' W 122°22'1224.2
2018-Jun-21 14:30N 37°52' W 122°20'2 3.9
2018-Jun-21 14:00N 37°51' W 122°22'1121.9
2018-Jun-21 13:30N 37°40' W 122°23'1224.6
2018-Jun-21 13:01N 37°52' W 122°23'3 6.5
2018-Jun-21 12:30N 37°55' W 122°21'5 9.6
2018-Jun-21 12:00N 37°51' W 122°19'0 0.4
2018-Jun-21 11:30N 37°50' W 122°19'0 0.0
2018-Jun-21 02:35N 37°50' W 122°19'0 0.0
2018-Jun-21 02:31N 37°50' W 122°19'2 3.3
2018-Jun-21 02:00N 37°52' W 122°19'1224.0
2018-Jun-21 01:30N 37°40' W 122°22'1 1.6
2018-Jun-21 01:00N 37°41' W 122°22'1327.0
2018-Jun-21 00:31N 37°54' W 122°25'1222.3
2018-Jun-20 23:57N 38°04' W 122°15'0 0.5
2018-Jun-20 23:30N 38°04' W 122°15'1427.7
2018-Jun-20 23:01N 37°55' W 122°28'1121.5
2018-Jun-20 22:31N 37°45' W 122°22'6 9.5
2018-Jun-20 21:54N 37°40' W 122°23'511.5
2018-Jun-20 21:30N 37°44' W 122°21'612.9
2018-Jun-20 21:00N 37°50' W 122°19'0 0.0
2018-Jun-20 20:29N 37°50' W 122°19'0 0.0
2018-Jun-20 16:58N 37°50' W 122°19'0 0.0
2018-Jun-20 16:30N 37°50' W 122°19'0 0.0
2018-Jun-20 16:00N 37°50' W 122°19'3 5.8
2018-Jun-20 15:30N 37°48' W 122°21'816.4
2018-Jun-20 15:00N 37°40' W 122°22'1224.4
2018-Jun-20 14:30N 37°52' W 122°19'3 5.9
2018-Jun-20 14:01N 37°50' W 122°22'1019.5
2018-Jun-20 13:30N 37°40' W 122°23'1224.0
2018-Jun-20 13:00N 37°52' W 122°24'3 6.7
2018-Jun-20 12:31N 37°55' W 122°21'5 9.1
2018-Jun-20 12:00N 37°50' W 122°19'0 0.0
2018-Jun-20 02:45N 37°50' W 122°19'0 0.3
2018-Jun-20 02:30N 37°50' W 122°19'2 3.1
2018-Jun-20 02:01N 37°52' W 122°20'1223.1
2018-Jun-20 01:30N 37°40' W 122°23'1 2.8
2018-Jun-20 01:00N 37°41' W 122°21'1326.8
2018-Jun-20 00:31N 37°54' W 122°25'1122.0
2018-Jun-20 00:00N 38°03' W 122°17'2 4.6
2018-Jun-19 23:30N 38°04' W 122°14'1427.8
2018-Jun-19 23:00N 37°55' W 122°28'1121.2
2018-Jun-19 22:30N 37°46' W 122°22'611.8
2018-Jun-19 22:00N 37°40' W 122°23'816.2
2018-Jun-19 21:31N 37°48' W 122°21'3 1.0
2018-Jun-19 18:16N 37°50' W 122°19'0 0.0
2018-Jun-19 18:00N 37°50' W 122°19'0 0.0
2018-Jun-19 17:28N 37°50' W 122°19'0 0.0
2018-Jun-19 17:00N 37°50' W 122°19'0 0.0
2018-Jun-19 16:30N 37°50' W 122°19'0 0.0
2018-Jun-19 16:00N 37°50' W 122°19'3 5.6
2018-Jun-19 15:30N 37°48' W 122°21'815.9
2018-Jun-19 15:00N 37°40' W 122°22'1224.0
2018-Jun-19 14:31N 37°52' W 122°20'2 4.3
2018-Jun-19 14:01N 37°51' W 122°22'1120.8
2018-Jun-19 13:29N 37°40' W 122°22'1225.4
2018-Jun-19 13:01N 37°52' W 122°24'3 6.0
2018-Jun-19 12:30N 37°55' W 122°22'5 9.4
2018-Jun-19 12:00N 37°50' W 122°19'0 0.2
2018-Jun-19 11:28N 37°50' W 122°19'0 0.0
2018-Jun-19 02:33N 37°50' W 122°19'0 0.0
2018-Jun-19 02:29N 37°50' W 122°19'2 3.6
2018-Jun-19 02:00N 37°52' W 122°19'1224.2
2018-Jun-19 01:30N 37°40' W 122°22'0 0.7
2018-Jun-19 01:00N 37°40' W 122°21'1327.1
2018-Jun-19 00:31N 37°53' W 122°25'1223.4
2018-Jun-19 00:00N 38°03' W 122°16'1 1.5
2018-Jun-18 23:28N 38°04' W 122°15'1327.6
2018-Jun-18 23:00N 37°55' W 122°28'1121.4
2018-Jun-18 22:31N 37°46' W 122°22'612.0
2018-Jun-18 22:01N 37°40' W 122°23'918.5
2018-Jun-18 21:31N 37°49' W 122°21'2 4.6
2018-Jun-18 21:00N 37°50' W 122°19'0 0.0
2018-Jun-18 20:30N 37°50' W 122°19'0 0.0
2018-Jun-18 17:18N 37°50' W 122°19'0 0.0
2018-Jun-18 17:01N 37°50' W 122°19'0 0.0
2018-Jun-18 16:30N 37°50' W 122°19'0 0.0
2018-Jun-18 16:01N 37°50' W 122°19'4 8.4
2018-Jun-18 15:31N 37°47' W 122°22'611.8
2018-Jun-18 15:00N 37°41' W 122°22'1122.4
2018-Jun-18 14:31N 37°52' W 122°19'3 5.6
2018-Jun-18 14:00N 37°50' W 122°22'1018.5
2018-Jun-18 13:28N 37°40' W 122°22'1227.0
2018-Jun-18 13:00N 37°52' W 122°23'3 5.3
2018-Jun-18 12:31N 37°55' W 122°22'5 9.2
2018-Jun-18 12:00N 37°50' W 122°19'0 0.3
2018-Jun-18 11:30N 37°50' W 122°19'  
2018-Jun-16 02:31N 37°50' W 122°19'0 0.0
2018-Jun-16 02:30N 37°50' W 122°19'2 3.2
2018-Jun-16 02:00N 37°52' W 122°19'1224.0
2018-Jun-16 01:31N 37°40' W 122°22'3 6.5
2018-Jun-16 01:00N 37°44' W 122°21'1325.6
2018-Jun-16 00:31N 37°56' W 122°25'1121.0
2018-Jun-15 23:58N 38°04' W 122°15'1 1.1
2018-Jun-15 23:29N 38°03' W 122°16'1226.0
2018-Jun-15 23:00N 37°56' W 122°27'1021.0
2018-Jun-15 22:30N 37°46' W 122°22'612.4
2018-Jun-15 22:00N 37°40' W 122°23'611.5
2018-Jun-15 21:31N 37°45' W 122°22'510.5
2018-Jun-15 21:00N 37°50' W 122°19'0 0.1
2018-Jun-15 20:30N 37°50' W 122°19'0 0.0
2018-Jun-15 17:24N 37°50' W 122°19'0 0.0
2018-Jun-15 17:00N 37°50' W 122°19'0 0.0
2018-Jun-15 16:30N 37°50' W 122°19'0 0.0
2018-Jun-15 16:00N 37°50' W 122°19'3 6.6
2018-Jun-15 15:31N 37°48' W 122°21'612.4
2018-Jun-15 15:00N 37°41' W 122°22'1121.2
2018-Jun-15 14:30N 37°52' W 122°19'3 5.2
2018-Jun-15 14:00N 37°50' W 122°22'1120.9
2018-Jun-15 13:30N 37°40' W 122°22'1326.1
2018-Jun-15 13:01N 37°53' W 122°23'3 4.8
2018-Jun-15 12:29N 37°55' W 122°21'510.1
2018-Jun-15 12:00N 37°50' W 122°19'0 0.1
2018-Jun-15 11:30N 37°50' W 122°19'0 0.0
2018-Jun-15 02:29N 37°50' W 122°19'2 3.4
2018-Jun-15 02:01N 37°52' W 122°19'1224.1
2018-Jun-15 01:30N 37°40' W 122°22'3 6.4
2018-Jun-15 01:00N 37°43' W 122°21'1326.1
2018-Jun-15 00:31N 37°56' W 122°26'1121.5
2018-Jun-15 00:01N 38°03' W 122°17'2 3.0
2018-Jun-14 23:30N 38°04' W 122°15'1326.8
2018-Jun-14 23:00N 37°55' W 122°28'1121.6
2018-Jun-14 22:30N 37°45' W 122°22'610.9
2018-Jun-14 21:59N 37°40' W 122°23'2 3.1
2018-Jun-14 21:29N 37°41' W 122°21'815.9
2018-Jun-14 21:00N 37°48' W 122°17'611.0
2018-Jun-14 20:30N 37°48' W 122°24'5 8.5
2018-Jun-14 19:58N 37°50' W 122°19'0 0.0
2018-Jun-14 17:12N 37°50' W 122°19'0 0.3
2018-Jun-14 17:01N 37°50' W 122°19'0 0.1
2018-Jun-14 16:30N 37°50' W 122°19'0 0.0
2018-Jun-14 16:00N 37°50' W 122°19'4 8.0
2018-Jun-14 15:30N 37°47' W 122°22'611.8
2018-Jun-14 15:00N 37°41' W 122°22'1121.6
2018-Jun-14 14:30N 37°52' W 122°19'3 7.0
2018-Jun-14 14:00N 37°49' W 122°21'917.3
2018-Jun-14 13:29N 37°40' W 122°22'1326.4
2018-Jun-14 13:01N 37°52' W 122°23'3 5.8
2018-Jun-14 12:30N 37°55' W 122°21'5 9.6
2018-Jun-14 12:00N 37°51' W 122°19'0 0.5
2018-Jun-14 11:30N 37°50' W 122°19'0 0.0
2018-Jun-14 11:00N 37°50' W 122°19'0 0.0
2018-Jun-14 02:36N 37°50' W 122°19'0 0.0
2018-Jun-14 02:31N 37°50' W 122°19'2 3.3
2018-Jun-14 02:01N 37°52' W 122°19'1223.0
2018-Jun-14 01:28N 37°40' W 122°23'0 0.6
2018-Jun-14 01:01N 37°40' W 122°22'1224.5
2018-Jun-14 00:31N 37°52' W 122°24'1324.5
2018-Jun-14 00:00N 38°03' W 122°17'2 3.7
2018-Jun-13 23:30N 38°04' W 122°14'1427.5
2018-Jun-13 23:00N 37°55' W 122°28'1121.1
2018-Jun-13 22:31N 37°46' W 122°22'611.5
2018-Jun-13 21:59N 37°40' W 122°23'815.9
2018-Jun-13 21:31N 37°47' W 122°21'4 7.2
2018-Jun-13 21:00N 37°50' W 122°19'0 0.0
2018-Jun-13 20:30N 37°50' W 122°19'0 0.1
2018-Jun-13 16:28N 37°51' W 122°19'1124.4
2018-Jun-13 16:00N 37°40' W 122°23'816.7
2018-Jun-13 15:31N 37°48' W 122°21'4 7.4
2018-Jun-13 15:00N 37°52' W 122°20'1222.5
2018-Jun-13 14:28N 37°40' W 122°23'818.2
2018-Jun-13 14:01N 37°48' W 122°23'816.0
2018-Jun-13 13:31N 37°55' W 122°29'1325.5
2018-Jun-13 13:00N 38°03' W 122°16'5 9.4
2018-Jun-13 12:26N 38°02' W 122°10'1023.4
2018-Jun-13 12:00N 38°01' W 122°22'1121.3
2018-Jun-13 11:31N 37°51' W 122°20'1 0.1
2018-Jun-13 02:32N 37°50' W 122°19'0 0.0
2018-Jun-13 02:30N 37°50' W 122°19'2 3.4
2018-Jun-13 02:01N 37°52' W 122°19'1319.3
2018-Jun-13 01:21N 37°40' W 122°23'1 3.9
2018-Jun-13 01:00N 37°41' W 122°21'1428.1
2018-Jun-13 00:31N 37°54' W 122°25'1223.4
2018-Jun-13 00:00N 38°04' W 122°15'0 0.5
2018-Jun-12 23:30N 38°04' W 122°15'1325.8
2018-Jun-12 23:00N 37°55' W 122°28'1020.8
2018-Jun-12 22:30N 37°46' W 122°22'612.0
2018-Jun-12 22:00N 37°40' W 122°23'4 8.2
2018-Jun-12 21:30N 37°44' W 122°21'713.9
2018-Jun-12 21:00N 37°50' W 122°19'0 0.0
2018-Jun-12 20:30N 37°50' W 122°19'0 0.0
2018-Jun-12 16:35N 37°50' W 122°19'1 6.8
2018-Jun-12 16:31N 37°51' W 122°19'  
Track history (hours):
 
Tides and Currents Weather Stations Pressure Air Temp Water Temp Dewpoint Dewpoint Depression Visibility Wind Speed Wind Dir Waves Ship Positions

Blackbird

Owner: PropSF, LLC, Alameda, CA. More information available from US FCC via Universal Licensing System and Coast Guard Vessel Documentation Center.

Last reported at 2018-Jun-22 16:19 UTC. Time now 2018-Jun-22 17:10 UTC.
Position N 37°50' W 122°19'.

Length 17 m; draft 1 m.

Type: Passenger vessel. MMSI: 367776390.

Date/timePositionNaut miles runAvg speedWind from/ knotsBaromVisibWave heightAir tempDewpointWater temp
2018-Jun-22 16:19N 37°50' W 122°19'0 0.0
2018-Jun-22 16:00N 37°50' W 122°19'3 5.1
2018-Jun-22 15:30N 37°48' W 122°21'916.9
2018-Jun-22 15:00N 37°40' W 122°22'1224.2
2018-Jun-22 14:30N 37°52' W 122°19'3 5.5
2018-Jun-22 14:00N 37°50' W 122°22'1020.2
2018-Jun-22 13:30N 37°40' W 122°23'1223.6
2018-Jun-22 13:01N 37°52' W 122°23'4 7.4
2018-Jun-22 12:30N 37°55' W 122°21'5 9.6
2018-Jun-22 12:00N 37°50' W 122°19'0 0.2
2018-Jun-22 11:29N 37°50' W 122°19'0 0.0
2018-Jun-22 02:41N 37°50' W 122°19'0 0.3
2018-Jun-22 02:30N 37°50' W 122°19'2 3.3
2018-Jun-22 02:00N 37°52' W 122°19'1223.8
2018-Jun-22 01:31N 37°40' W 122°22'1 2.9
2018-Jun-22 01:00N 37°42' W 122°21'1427.6
2018-Jun-22 00:31N 37°55' W 122°26'1223.1
2018-Jun-22 00:00N 38°04' W 122°16'1 1.8
2018-Jun-21 23:30N 38°04' W 122°15'1427.3
2018-Jun-21 23:00N 37°55' W 122°28'1121.2
2018-Jun-21 22:31N 37°46' W 122°22'611.3
2018-Jun-21 21:59N 37°40' W 122°23'510.1
2018-Jun-21 21:30N 37°44' W 122°21'612.2
2018-Jun-21 21:00N 37°50' W 122°19'0 0.0
2018-Jun-21 16:42N 37°50' W 122°19'0 0.0
2018-Jun-21 16:30N 37°50' W 122°19'0 0.0
2018-Jun-21 16:00N 37°50' W 122°19'3 5.1
2018-Jun-21 15:30N 37°48' W 122°21'917.3
2018-Jun-21 15:00N 37°40' W 122°22'1224.2
2018-Jun-21 14:30N 37°52' W 122°20'2 3.9
2018-Jun-21 14:00N 37°51' W 122°22'1121.9
2018-Jun-21 13:30N 37°40' W 122°23'1224.6
2018-Jun-21 13:01N 37°52' W 122°23'3 6.5
2018-Jun-21 12:30N 37°55' W 122°21'5 9.6
2018-Jun-21 12:00N 37°51' W 122°19'0 0.4
2018-Jun-21 11:30N 37°50' W 122°19'0 0.0
2018-Jun-21 02:35N 37°50' W 122°19'0 0.0
2018-Jun-21 02:31N 37°50' W 122°19'2 3.3
2018-Jun-21 02:00N 37°52' W 122°19'1224.0
2018-Jun-21 01:30N 37°40' W 122°22'1 1.6
2018-Jun-21 01:00N 37°41' W 122°22'1327.0
2018-Jun-21 00:31N 37°54' W 122°25'1222.3
2018-Jun-20 23:57N 38°04' W 122°15'0 0.5
2018-Jun-20 23:30N 38°04' W 122°15'1427.7
2018-Jun-20 23:01N 37°55' W 122°28'1121.5
2018-Jun-20 22:31N 37°45' W 122°22'6 9.5
2018-Jun-20 21:54N 37°40' W 122°23'511.5
2018-Jun-20 21:30N 37°44' W 122°21'612.9
2018-Jun-20 21:00N 37°50' W 122°19'0 0.0
2018-Jun-20 20:29N 37°50' W 122°19'0 0.0
2018-Jun-20 16:58N 37°50' W 122°19'0 0.0
2018-Jun-20 16:30N 37°50' W 122°19'0 0.0
2018-Jun-20 16:00N 37°50' W 122°19'3 5.8
2018-Jun-20 15:30N 37°48' W 122°21'816.4
2018-Jun-20 15:00N 37°40' W 122°22'1224.4
2018-Jun-20 14:30N 37°52' W 122°19'3 5.9
2018-Jun-20 14:01N 37°50' W 122°22'1019.5
2018-Jun-20 13:30N 37°40' W 122°23'1224.0
2018-Jun-20 13:00N 37°52' W 122°24'3 6.7
2018-Jun-20 12:31N 37°55' W 122°21'5 9.1
2018-Jun-20 12:00N 37°50' W 122°19'0 0.0
2018-Jun-20 02:45N 37°50' W 122°19'0 0.3
2018-Jun-20 02:30N 37°50' W 122°19'2 3.1
2018-Jun-20 02:01N 37°52' W 122°20'1223.1
2018-Jun-20 01:30N 37°40' W 122°23'1 2.8
2018-Jun-20 01:00N 37°41' W 122°21'1326.8
2018-Jun-20 00:31N 37°54' W 122°25'1122.0
2018-Jun-20 00:00N 38°03' W 122°17'2 4.6
2018-Jun-19 23:30N 38°04' W 122°14'1427.8
2018-Jun-19 23:00N 37°55' W 122°28'1121.2
2018-Jun-19 22:30N 37°46' W 122°22'611.8
2018-Jun-19 22:00N 37°40' W 122°23'816.2
2018-Jun-19 21:31N 37°48' W 122°21'3 1.0
2018-Jun-19 18:16N 37°50' W 122°19'0 0.0
2018-Jun-19 18:00N 37°50' W 122°19'0 0.0
2018-Jun-19 17:28N 37°50' W 122°19'0 0.0
2018-Jun-19 17:00N 37°50' W 122°19'0 0.0
2018-Jun-19 16:30N 37°50' W 122°19'0 0.0
2018-Jun-19 16:00N 37°50' W 122°19'3 5.6
2018-Jun-19 15:30N 37°48' W 122°21'815.9
2018-Jun-19 15:00N 37°40' W 122°22'1224.0
2018-Jun-19 14:31N 37°52' W 122°20'2 4.3
2018-Jun-19 14:01N 37°51' W 122°22'1120.8
2018-Jun-19 13:29N 37°40' W 122°22'1225.4
2018-Jun-19 13:01N 37°52' W 122°24'3 6.0
2018-Jun-19 12:30N 37°55' W 122°22'5 9.4
2018-Jun-19 12:00N 37°50' W 122°19'0 0.2
2018-Jun-19 11:28N 37°50' W 122°19'0 0.0
2018-Jun-19 02:33N 37°50' W 122°19'0 0.0
2018-Jun-19 02:29N 37°50' W 122°19'2 3.6
2018-Jun-19 02:00N 37°52' W 122°19'1224.2
2018-Jun-19 01:30N 37°40' W 122°22'0 0.7
2018-Jun-19 01:00N 37°40' W 122°21'1327.1
2018-Jun-19 00:31N 37°53' W 122°25'1223.4
2018-Jun-19 00:00N 38°03' W 122°16'1 1.5
2018-Jun-18 23:28N 38°04' W 122°15'1327.6
2018-Jun-18 23:00N 37°55' W 122°28'1121.4
2018-Jun-18 22:31N 37°46' W 122°22'612.0
2018-Jun-18 22:01N 37°40' W 122°23'918.5
2018-Jun-18 21:31N 37°49' W 122°21'2 4.6
2018-Jun-18 21:00N 37°50' W 122°19'0 0.0
2018-Jun-18 20:30N 37°50' W 122°19'0 0.0
2018-Jun-18 17:18N 37°50' W 122°19'0 0.0
2018-Jun-18 17:01N 37°50' W 122°19'0 0.0
2018-Jun-18 16:30N 37°50' W 122°19'0 0.0
2018-Jun-18 16:01N 37°50' W 122°19'4 8.4
2018-Jun-18 15:31N 37°47' W 122°22'611.8
2018-Jun-18 15:00N 37°41' W 122°22'1122.4
2018-Jun-18 14:31N 37°52' W 122°19'3 5.6
2018-Jun-18 14:00N 37°50' W 122°22'1018.5
2018-Jun-18 13:28N 37°40' W 122°22'1227.0
2018-Jun-18 13:00N 37°52' W 122°23'3 5.3
2018-Jun-18 12:31N 37°55' W 122°22'5 9.2
2018-Jun-18 12:00N 37°50' W 122°19'0 0.3
2018-Jun-18 11:30N 37°50' W 122°19'  
2018-Jun-16 02:31N 37°50' W 122°19'0 0.0
2018-Jun-16 02:30N 37°50' W 122°19'2 3.2
2018-Jun-16 02:00N 37°52' W 122°19'1224.0
2018-Jun-16 01:31N 37°40' W 122°22'3 6.5
2018-Jun-16 01:00N 37°44' W 122°21'1325.6
2018-Jun-16 00:31N 37°56' W 122°25'1121.0
2018-Jun-15 23:58N 38°04' W 122°15'1 1.1
2018-Jun-15 23:29N 38°03' W 122°16'1226.0
2018-Jun-15 23:00N 37°56' W 122°27'1021.0
2018-Jun-15 22:30N 37°46' W 122°22'612.4
2018-Jun-15 22:00N 37°40' W 122°23'611.5
2018-Jun-15 21:31N 37°45' W 122°22'510.5
2018-Jun-15 21:00N 37°50' W 122°19'0 0.1
2018-Jun-15 20:30N 37°50' W 122°19'0 0.0
2018-Jun-15 17:24N 37°50' W 122°19'0 0.0
2018-Jun-15 17:00N 37°50' W 122°19'0 0.0
2018-Jun-15 16:30N 37°50' W 122°19'0 0.0
2018-Jun-15 16:00N 37°50' W 122°19'3 6.6
2018-Jun-15 15:31N 37°48' W 122°21'612.4
2018-Jun-15 15:00N 37°41' W 122°22'1121.2
2018-Jun-15 14:30N 37°52' W 122°19'3 5.2
2018-Jun-15 14:00N 37°50' W 122°22'1120.9
2018-Jun-15 13:30N 37°40' W 122°22'1326.1
2018-Jun-15 13:01N 37°53' W 122°23'3 4.8
2018-Jun-15 12:29N 37°55' W 122°21'510.1
2018-Jun-15 12:00N 37°50' W 122°19'0 0.1
2018-Jun-15 11:30N 37°50' W 122°19'0 0.0
2018-Jun-15 02:29N 37°50' W 122°19'2 3.4
2018-Jun-15 02:01N 37°52' W 122°19'1224.1
2018-Jun-15 01:30N 37°40' W 122°22'3 6.4
2018-Jun-15 01:00N 37°43' W 122°21'1326.1
2018-Jun-15 00:31N 37°56' W 122°26'1121.5
2018-Jun-15 00:01N 38°03' W 122°17'2 3.0
2018-Jun-14 23:30N 38°04' W 122°15'1326.8
2018-Jun-14 23:00N 37°55' W 122°28'1121.6
2018-Jun-14 22:30N 37°45' W 122°22'610.9
2018-Jun-14 21:59N 37°40' W 122°23'2 3.1
2018-Jun-14 21:29N 37°41' W 122°21'815.9
2018-Jun-14 21:00N 37°48' W 122°17'611.0
2018-Jun-14 20:30N 37°48' W 122°24'5 8.5
2018-Jun-14 19:58N 37°50' W 122°19'0 0.0
2018-Jun-14 17:12N 37°50' W 122°19'0 0.3
2018-Jun-14 17:01N 37°50' W 122°19'0 0.1
2018-Jun-14 16:30N 37°50' W 122°19'0 0.0
2018-Jun-14 16:00N 37°50' W 122°19'4 8.0
2018-Jun-14 15:30N 37°47' W 122°22'611.8
2018-Jun-14 15:00N 37°41' W 122°22'1121.6
2018-Jun-14 14:30N 37°52' W 122°19'3 7.0
2018-Jun-14 14:00N 37°49' W 122°21'917.3
2018-Jun-14 13:29N 37°40' W 122°22'1326.4
2018-Jun-14 13:01N 37°52' W 122°23'3 5.8
2018-Jun-14 12:30N 37°55' W 122°21'5 9.6
2018-Jun-14 12:00N 37°51' W 122°19'0 0.5
2018-Jun-14 11:30N 37°50' W 122°19'0 0.0
2018-Jun-14 11:00N 37°50' W 122°19'0 0.0
2018-Jun-14 02:36N 37°50' W 122°19'0 0.0
2018-Jun-14 02:31N 37°50' W 122°19'2 3.3
2018-Jun-14 02:01N 37°52' W 122°19'1223.0
2018-Jun-14 01:28N 37°40' W 122°23'0 0.6
2018-Jun-14 01:01N 37°40' W 122°22'1224.5
2018-Jun-14 00:31N 37°52' W 122°24'1324.5
2018-Jun-14 00:00N 38°03' W 122°17'2 3.7
2018-Jun-13 23:30N 38°04' W 122°14'1427.5
2018-Jun-13 23:00N 37°55' W 122°28'1121.1
2018-Jun-13 22:31N 37°46' W 122°22'611.5
2018-Jun-13 21:59N 37°40' W 122°23'815.9
2018-Jun-13 21:31N 37°47' W 122°21'4 7.2
2018-Jun-13 21:00N 37°50' W 122°19'0 0.0
2018-Jun-13 20:30N 37°50' W 122°19'0 0.1
2018-Jun-13 16:28N 37°51' W 122°19'1124.4
2018-Jun-13 16:00N 37°40' W 122°23'816.7
2018-Jun-13 15:31N 37°48' W 122°21'4 7.4
2018-Jun-13 15:00N 37°52' W 122°20'1222.5
2018-Jun-13 14:28N 37°40' W 122°23'818.2
2018-Jun-13 14:01N 37°48' W 122°23'816.0
2018-Jun-13 13:31N 37°55' W 122°29'1325.5
2018-Jun-13 13:00N 38°03' W 122°16'5 9.4
2018-Jun-13 12:26N 38°02' W 122°10'1023.4
2018-Jun-13 12:00N 38°01' W 122°22'1121.3
2018-Jun-13 11:31N 37°51' W 122°20'1 0.1
2018-Jun-13 02:32N 37°50' W 122°19'0 0.0
2018-Jun-13 02:30N 37°50' W 122°19'2 3.4
2018-Jun-13 02:01N 37°52' W 122°19'1319.3
2018-Jun-13 01:21N 37°40' W 122°23'1 3.9
2018-Jun-13 01:00N 37°41' W 122°21'1428.1
2018-Jun-13 00:31N 37°54' W 122°25'1223.4
2018-Jun-13 00:00N 38°04' W 122°15'0 0.5
2018-Jun-12 23:30N 38°04' W 122°15'1325.8
2018-Jun-12 23:00N 37°55' W 122°28'1020.8
2018-Jun-12 22:30N 37°46' W 122°22'612.0
2018-Jun-12 22:00N 37°40' W 122°23'4 8.2
2018-Jun-12 21:30N 37°44' W 122°21'713.9
2018-Jun-12 21:00N 37°50' W 122°19'0 0.0
2018-Jun-12 20:30N 37°50' W 122°19'0 0.0
2018-Jun-12 16:35N 37°50' W 122°19'1 6.8
2018-Jun-12 16:31N 37°51' W 122°19'  

Dump ship's entire track history